Time;durP1;ratioP1;P1;durP2;ratioP2;P2;SDS_P1;SDS_P2;PMS_P1;PMS_P2;Temp;Humidity;BMP_temperature;BMP_pressure;BME280_temperature;BME280_humidity;BME280_pressure;Samples;Min_cycle;Max_cycle;Signal;HPM_P1;HPM_P2
2023/03/09 00:00:15;;;;;;;2.30;1.47;;;;;;;;;;5019805;28;20919;-53
2023/03/09 00:02:45;;;;;;;2.13;1.60;;;;;;;;;;4988574;28;20512;-52
2023/03/09 00:05:12;;;;;;;4.50;1.80;;;;;;;;;;5008962;28;20454;-54
2023/03/09 00:07:38;;;;;;;2.23;1.67;;;;;;;;;;5016178;28;20570;-56
2023/03/09 00:10:04;;;;;;;2.80;1.47;;;;;;;;;;5038259;28;20572;-59
2023/03/09 00:12:39;;;;;;;4.80;1.63;;;;;;;;;;5017745;28;20447;-52
2023/03/09 00:15:09;;;;;;;3.30;1.47;;;;;;;;;;4967434;28;20962;-54
2023/03/09 00:17:35;;;;;;;4.13;2.00;;;;;;;;;;5022891;28;20457;-53
2023/03/09 00:20:14;;;;;;;6.90;1.50;;;;;;;;;;4993019;28;20512;-53
2023/03/09 00:22:40;;;;;;;4.20;1.70;;;;;;;;;;5035774;28;20294;-53
2023/03/09 00:25:06;;;;;;;2.60;1.47;;;;;;;;;;4977481;28;20450;-53
2023/03/09 00:27:32;;;;;;;1.93;1.30;;;;;;;;;;5031411;28;20549;-54
2023/03/09 00:29:58;;;;;;;2.67;1.57;;;;;;;;;;5019821;28;20498;-53
2023/03/09 00:32:24;;;;;;;1.63;1.50;;;;;;;;;;5025531;28;20444;-52
2023/03/09 00:34:50;;;;;;;1.90;1.30;;;;;;;;;;4993060;28;20525;-54
2023/03/09 00:37:16;;;;;;;3.77;1.37;;;;;;;;;;5017387;28;20438;-53
2023/03/09 00:39:42;;;;;;;2.97;1.27;;;;;;;;;;5018487;28;20447;-54
2023/03/09 00:42:09;;;;;;;1.80;1.20;;;;;;;;;;5025852;28;20495;-53
2023/03/09 00:44:34;;;;;;;1.60;1.20;;;;;;;;;;5003737;28;21473;-53
2023/03/09 00:47:00;;;;;;;1.83;1.37;;;;;;;;;;5041230;28;20524;-52
2023/03/09 00:49:26;;;;;;;1.40;1.00;;;;;;;;;;5037140;28;20176;-53
2023/03/09 00:51:52;;;;;;;1.97;0.90;;;;;;;;;;5043752;28;20434;-53
2023/03/09 00:54:20;;;;;;;1.63;0.93;;;;;;;;;;5037025;28;20445;-52
2023/03/09 00:56:46;;;;;;;3.60;1.07;;;;;;;;;;5007007;28;20441;-54
2023/03/09 00:59:13;;;;;;;3.20;0.80;;;;;;;;;;4997479;28;20568;-53
2023/03/09 01:01:39;;;;;;;2.10;1.33;;;;;;;;;;5010774;28;20939;-52
2023/03/09 01:04:05;;;;;;;1.97;0.80;;;;;;;;;;5007561;28;20581;-54
2023/03/09 01:06:31;;;;;;;1.93;0.77;;;;;;;;;;5008526;28;20492;-54
2023/03/09 01:08:57;;;;;;;1.30;0.80;;;;;;;;;;5029861;28;21022;-53
2023/03/09 01:11:23;;;;;;;1.30;0.60;;;;;;;;;;5028964;28;20450;-53
2023/03/09 01:13:49;;;;;;;2.40;0.70;;;;;;;;;;5028924;28;20515;-54
2023/03/09 01:16:15;;;;;;;1.00;0.70;;;;;;;;;;5004551;28;20448;-52
2023/03/09 01:18:41;;;;;;;1.20;0.80;;;;;;;;;;5021256;28;20477;-52
2023/03/09 01:21:07;;;;;;;0.90;0.50;;;;;;;;;;5000010;28;20572;-52
2023/03/09 01:23:33;;;;;;;0.90;0.50;;;;;;;;;;4981241;28;1229298;-52
2023/03/09 01:25:59;;;;;;;0.97;0.70;;;;;;;;;;4985919;28;20299;-52
2023/03/09 01:28:25;;;;;;;0.90;0.57;;;;;;;;;;5028479;28;20580;-53
2023/03/09 01:30:51;;;;;;;1.00;0.57;;;;;;;;;;5022727;28;20434;-53
2023/03/09 01:33:17;;;;;;;1.10;0.63;;;;;;;;;;5032394;28;20818;-52
2023/03/09 01:35:43;;;;;;;2.43;0.80;;;;;;;;;;4992703;28;20446;-52
2023/03/09 01:38:09;;;;;;;1.83;0.70;;;;;;;;;;5026539;28;20457;-54
2023/03/09 01:40:35;;;;;;;1.10;0.70;;;;;;;;;;5024474;28;20437;-54
2023/03/09 01:43:02;;;;;;;1.30;0.60;;;;;;;;;;5019898;28;20191;-52
2023/03/09 01:45:28;;;;;;;1.20;0.80;;;;;;;;;;5010866;28;20692;-51
2023/03/09 01:47:54;;;;;;;1.00;0.60;;;;;;;;;;5018366;28;20473;-52
2023/03/09 01:50:22;;;;;;;2.20;0.80;;;;;;;;;;4986448;28;21667;-53
2023/03/09 01:52:49;;;;;;;2.83;0.67;;;;;;;;;;5023541;28;20978;-53
2023/03/09 01:55:24;;;;;;;1.20;0.70;;;;;;;;;;5003685;28;20431;-52
2023/03/09 01:57:56;;;;;;;1.07;0.60;;;;;;;;;;5008220;28;20541;-52
2023/03/09 02:00:26;;;;;;;1.30;1.00;;;;;;;;;;5008215;28;23774;-53
2023/03/09 02:02:53;;;;;;;1.10;0.60;;;;;;;;;;5025373;28;20515;-53
2023/03/09 02:05:33;;;;;;;1.00;0.60;;;;;;;;;;5017107;28;20434;-53
2023/03/09 02:07:59;;;;;;;1.33;0.60;;;;;;;;;;5018453;28;20529;-53
2023/03/09 02:10:35;;;;;;;1.40;0.70;;;;;;;;;;4986561;28;20538;-54
2023/03/09 02:13:08;;;;;;;1.30;0.70;;;;;;;;;;5036683;28;20437;-55
2023/03/09 02:15:34;;;;;;;2.13;0.70;;;;;;;;;;4997781;28;20450;-53
2023/03/09 02:18:00;;;;;;;1.87;0.80;;;;;;;;;;5032339;28;21004;-53
2023/03/09 02:20:35;;;;;;;1.50;0.60;;;;;;;;;;5020151;28;20453;-53
2023/03/09 02:23:03;;;;;;;0.90;0.60;;;;;;;;;;5027805;28;20231;-54
2023/03/09 02:25:29;;;;;;;1.40;0.77;;;;;;;;;;5004676;28;20437;-55
2023/03/09 02:27:55;;;;;;;1.77;0.80;;;;;;;;;;5020061;28;20861;-53
2023/03/09 02:30:26;;;;;;;2.90;0.60;;;;;;;;;;4999825;28;20448;-54
2023/03/09 02:32:52;;;;;;;1.00;0.83;;;;;;;;;;4998305;28;21162;-52
2023/03/09 02:35:18;;;;;;;1.20;0.60;;;;;;;;;;5014258;28;20939;-52
2023/03/09 02:37:44;;;;;;;1.00;0.60;;;;;;;;;;5019703;28;20187;-52
2023/03/09 02:40:13;;;;;;;1.00;0.70;;;;;;;;;;5023808;28;20443;-54
2023/03/09 02:42:39;;;;;;;1.27;0.90;;;;;;;;;;5010287;28;20450;-49
2023/03/09 02:45:06;;;;;;;1.20;0.70;;;;;;;;;;5013953;28;20516;-52
2023/03/09 02:47:32;;;;;;;3.33;0.80;;;;;;;;;;4998125;28;20486;-53
2023/03/09 02:49:58;;;;;;;1.00;0.60;;;;;;;;;;5027173;28;21114;-52
2023/03/09 02:52:24;;;;;;;0.90;0.60;;;;;;;;;;5033551;28;20507;-53
2023/03/09 02:54:50;;;;;;;0.90;0.53;;;;;;;;;;5032141;28;20461;-53
2023/03/09 02:57:16;;;;;;;1.00;0.60;;;;;;;;;;5004947;28;20700;-52
2023/03/09 02:59:42;;;;;;;1.00;0.60;;;;;;;;;;5033217;28;20533;-53
2023/03/09 03:02:09;;;;;;;1.30;0.80;;;;;;;;;;4995930;28;21163;-54
2023/03/09 03:04:35;;;;;;;0.93;0.57;;;;;;;;;;5040203;28;20176;-52
2023/03/09 03:07:01;;;;;;;1.03;0.70;;;;;;;;;;5034983;28;20563;-52
2023/03/09 03:09:27;;;;;;;1.00;0.60;;;;;;;;;;5039045;28;20836;-53
2023/03/09 03:11:53;;;;;;;1.20;0.60;;;;;;;;;;5016432;28;20449;-52
2023/03/09 03:14:19;;;;;;;0.90;0.50;;;;;;;;;;5027417;28;20435;-52
2023/03/09 03:16:45;;;;;;;1.00;0.70;;;;;;;;;;5041478;28;20449;-52
2023/03/09 03:19:11;;;;;;;0.90;0.50;;;;;;;;;;5011653;28;20522;-52
2023/03/09 03:21:37;;;;;;;1.00;0.67;;;;;;;;;;5027994;28;20532;-53
2023/03/09 03:24:03;;;;;;;1.73;0.70;;;;;;;;;;5022307;28;20454;-53
2023/03/09 03:26:29;;;;;;;1.20;0.60;;;;;;;;;;5030737;28;20293;-52
2023/03/09 03:28:55;;;;;;;2.07;0.70;;;;;;;;;;5000941;28;20479;-52
2023/03/09 03:31:21;;;;;;;1.00;0.60;;;;;;;;;;4995865;28;20450;-52
2023/03/09 03:33:47;;;;;;;1.47;0.70;;;;;;;;;;5022790;28;20183;-53
2023/03/09 03:36:16;;;;;;;1.43;0.70;;;;;;;;;;4987206;28;20864;-56
2023/03/09 03:38:42;;;;;;;1.00;0.60;;;;;;;;;;4994778;28;20461;-53
2023/03/09 03:41:08;;;;;;;1.47;0.90;;;;;;;;;;5022390;28;20584;-52
2023/03/09 03:43:34;;;;;;;1.20;0.70;;;;;;;;;;5012495;28;20454;-56
2023/03/09 03:46:00;;;;;;;1.60;0.57;;;;;;;;;;5035389;28;20462;-53
2023/03/09 03:48:26;;;;;;;0.90;0.60;;;;;;;;;;5009722;28;20480;-52
2023/03/09 03:50:52;;;;;;;1.00;0.77;;;;;;;;;;5038362;28;20482;-52
2023/03/09 03:53:18;;;;;;;0.90;0.63;;;;;;;;;;5042909;28;20450;-54
2023/03/09 03:55:44;;;;;;;0.90;0.60;;;;;;;;;;5029958;28;20438;-51
2023/03/09 03:58:10;;;;;;;1.37;0.70;;;;;;;;;;5033085;28;20187;-50
2023/03/09 04:00:36;;;;;;;3.30;1.00;;;;;;;;;;5032397;28;20484;-53
2023/03/09 04:03:02;;;;;;;1.10;0.90;;;;;;;;;;4997548;28;20450;-53
2023/03/09 04:05:28;;;;;;;2.90;1.33;;;;;;;;;;5016377;28;20457;-53
2023/03/09 04:07:54;;;;;;;2.07;0.87;;;;;;;;;;4995128;28;20482;-52
2023/03/09 04:10:20;;;;;;;1.43;0.90;;;;;;;;;;5022124;28;20443;-52
2023/03/09 04:12:46;;;;;;;4.23;1.10;;;;;;;;;;5027056;28;20450;-55
2023/03/09 04:15:12;;;;;;;4.10;1.50;;;;;;;;;;5018847;28;20436;-52
2023/03/09 04:17:37;;;;;;;3.97;1.83;;;;;;;;;;5018198;28;22129;-54
2023/03/09 04:20:04;;;;;;;2.43;1.40;;;;;;;;;;5031951;28;22483;-53
2023/03/09 04:22:30;;;;;;;2.40;1.37;;;;;;;;;;4996784;28;20472;-53
2023/03/09 04:24:56;;;;;;;1.67;1.00;;;;;;;;;;5020220;28;20451;-52
2023/03/09 04:27:22;;;;;;;2.90;1.30;;;;;;;;;;5002062;28;20474;-53
2023/03/09 04:29:48;;;;;;;3.03;1.10;;;;;;;;;;5027392;28;20434;-55
2023/03/09 04:32:14;;;;;;;3.83;1.20;;;;;;;;;;5025629;28;20442;-53
2023/03/09 04:34:40;;;;;;;3.37;1.20;;;;;;;;;;5036918;28;22449;-53
2023/03/09 04:37:06;;;;;;;2.90;1.30;;;;;;;;;;4999851;28;23552;-54
2023/03/09 04:39:32;;;;;;;2.87;1.40;;;;;;;;;;5033696;28;20464;-53
2023/03/09 04:42:00;;;;;;;4.40;1.03;;;;;;;;;;5004256;28;20461;-53
2023/03/09 04:44:26;;;;;;;4.43;1.43;;;;;;;;;;4991027;28;20438;-53
2023/03/09 04:46:52;;;;;;;5.70;1.40;;;;;;;;;;5030557;28;20507;-54
2023/03/09 04:49:18;;;;;;;3.20;1.60;;;;;;;;;;5027593;28;20567;-54
2023/03/09 04:51:44;;;;;;;5.87;1.73;;;;;;;;;;5029136;28;20442;-55
2023/03/09 04:54:10;;;;;;;6.63;2.20;;;;;;;;;;5008493;28;20439;-53
2023/03/09 04:56:35;;;;;;;3.87;1.60;;;;;;;;;;5029181;28;20184;-54
2023/03/09 04:59:01;;;;;;;6.60;1.40;;;;;;;;;;5007532;28;20188;-53
2023/03/09 05:01:27;;;;;;;3.17;1.40;;;;;;;;;;5027032;28;20426;-54
2023/03/09 05:03:53;;;;;;;3.57;1.60;;;;;;;;;;5011307;28;20536;-54
2023/03/09 05:06:19;;;;;;;2.83;1.23;;;;;;;;;;5031298;28;20484;-53
2023/03/09 05:08:45;;;;;;;5.20;1.67;;;;;;;;;;5001556;28;20474;-54
2023/03/09 05:11:11;;;;;;;4.80;1.40;;;;;;;;;;5039979;28;20182;-54
2023/03/09 05:13:37;;;;;;;3.63;1.60;;;;;;;;;;4997350;28;20442;-53
2023/03/09 05:16:09;;;;;;;4.87;1.77;;;;;;;;;;5042620;28;20426;-56
2023/03/09 05:18:35;;;;;;;4.00;1.70;;;;;;;;;;5033951;28;20474;-52
2023/03/09 05:21:05;;;;;;;3.90;1.60;;;;;;;;;;5036359;28;20876;-53
2023/03/09 05:23:31;;;;;;;5.10;2.20;;;;;;;;;;5007133;28;20514;-52
2023/03/09 05:25:57;;;;;;;2.13;1.20;;;;;;;;;;5041608;28;20435;-51
2023/03/09 05:28:24;;;;;;;4.60;1.60;;;;;;;;;;5035148;28;20475;-53
2023/03/09 05:30:50;;;;;;;4.50;1.33;;;;;;;;;;5038865;28;20461;-53
2023/03/09 05:33:16;;;;;;;2.77;1.57;;;;;;;;;;5021573;28;21244;-55
2023/03/09 05:35:42;;;;;;;3.07;1.47;;;;;;;;;;5035557;28;21330;-53
2023/03/09 05:38:08;;;;;;;7.00;1.40;;;;;;;;;;5009009;28;20455;-53
2023/03/09 05:40:34;;;;;;;5.40;1.43;;;;;;;;;;5037157;28;20388;-52
2023/03/09 05:43:00;;;;;;;2.87;1.53;;;;;;;;;;5009823;28;21535;-53
2023/03/09 05:45:26;;;;;;;4.60;1.70;;;;;;;;;;5042961;28;20449;-51
2023/03/09 05:47:57;;;;;;;6.30;1.70;;;;;;;;;;5010459;28;20486;-52
2023/03/09 05:50:23;;;;;;;5.33;1.40;;;;;;;;;;5036027;28;20441;-52
2023/03/09 05:52:49;;;;;;;3.30;1.87;;;;;;;;;;5020491;28;20518;-51
2023/03/09 05:55:15;;;;;;;3.70;1.40;;;;;;;;;;5039618;28;20435;-55
2023/03/09 05:57:41;;;;;;;5.10;2.77;;;;;;;;;;5011576;28;20438;-52
2023/03/09 06:00:09;;;;;;;10.40;1.70;;;;;;;;;;5029613;28;20889;-53
2023/03/09 06:02:35;;;;;;;4.20;1.63;;;;;;;;;;5027970;28;20418;-52
2023/03/09 06:05:01;;;;;;;4.13;2.20;;;;;;;;;;5000461;28;20466;-52
2023/03/09 06:07:30;;;;;;;6.80;1.83;;;;;;;;;;5031732;28;20524;-53
2023/03/09 06:09:56;;;;;;;3.23;1.30;;;;;;;;;;5000970;28;20453;-52
2023/03/09 06:12:22;;;;;;;2.23;1.27;;;;;;;;;;5031935;28;20447;-53
2023/03/09 06:14:48;;;;;;;10.00;2.70;;;;;;;;;;5027307;28;20458;-52
2023/03/09 06:17:15;;;;;;;1.20;0.93;;;;;;;;;;5038173;28;20500;-51
2023/03/09 06:19:41;;;;;;;2.97;1.30;;;;;;;;;;4988686;28;20505;-52
2023/03/09 06:22:07;;;;;;;7.07;1.73;;;;;;;;;;5033274;28;20443;-52
2023/03/09 06:24:32;;;;;;;7.00;2.10;;;;;;;;;;5026910;28;20452;-54
2023/03/09 06:26:59;;;;;;;7.93;1.67;;;;;;;;;;5029161;28;20418;-55
2023/03/09 06:29:25;;;;;;;9.07;3.40;;;;;;;;;;4997563;28;20469;-51
2023/03/09 06:31:51;;;;;;;3.60;1.47;;;;;;;;;;5032699;28;20423;-51
2023/03/09 06:34:17;;;;;;;2.70;1.63;;;;;;;;;;5017662;28;20456;-52
2023/03/09 06:36:43;;;;;;;7.20;1.60;;;;;;;;;;5033473;28;20430;-52
2023/03/09 06:39:09;;;;;;;6.93;1.80;;;;;;;;;;5019523;28;20453;-52
2023/03/09 06:41:36;;;;;;;2.20;1.60;;;;;;;;;;5034202;28;20446;-52
2023/03/09 06:44:02;;;;;;;2.43;1.60;;;;;;;;;;5009022;28;20835;-50
2023/03/09 06:46:27;;;;;;;8.10;2.20;;;;;;;;;;5030091;28;20462;-50
2023/03/09 06:48:53;;;;;;;9.73;2.20;;;;;;;;;;5008073;28;20491;-50
2023/03/09 06:51:19;;;;;;;4.20;1.57;;;;;;;;;;5037104;28;20477;-50
2023/03/09 06:53:48;;;;;;;3.53;1.73;;;;;;;;;;5022628;28;20175;-52
2023/03/09 06:56:16;;;;;;;3.03;1.97;;;;;;;;;;4989410;28;20449;-52
2023/03/09 06:58:42;;;;;;;3.93;1.13;;;;;;;;;;5036574;28;20422;-51
2023/03/09 07:01:08;;;;;;;1.90;1.50;;;;;;;;;;5005133;28;20454;-51
2023/03/09 07:03:34;;;;;;;9.63;1.93;;;;;;;;;;5037557;28;21106;-52
2023/03/09 07:06:00;;;;;;;7.00;2.37;;;;;;;;;;5000756;28;20464;-52
2023/03/09 07:08:26;;;;;;;8.00;1.73;;;;;;;;;;5034637;28;20474;-52
2023/03/09 07:10:52;;;;;;;4.37;1.57;;;;;;;;;;5026243;28;20181;-53
2023/03/09 07:13:18;;;;;;;4.10;1.40;;;;;;;;;;4989282;28;20434;-53
2023/03/09 07:15:44;;;;;;;6.57;2.33;;;;;;;;;;5038382;28;20441;-52
2023/03/09 07:18:10;;;;;;;6.73;3.00;;;;;;;;;;5004998;28;20442;-53
2023/03/09 07:20:39;;;;;;;9.20;2.47;;;;;;;;;;5033183;28;20446;-51
2023/03/09 07:23:06;;;;;;;3.20;1.60;;;;;;;;;;5033160;28;21041;-51
2023/03/09 07:25:34;;;;;;;6.30;2.57;;;;;;;;;;5039549;28;20494;-54
2023/03/09 07:28:01;;;;;;;7.57;4.70;;;;;;;;;;4992122;28;20482;-52
2023/03/09 07:30:28;;;;;;;8.13;2.73;;;;;;;;;;5030364;28;20462;-52
2023/03/09 07:32:54;;;;;;;5.50;2.50;;;;;;;;;;5040232;28;20434;-53
2023/03/09 07:35:20;;;;;;;9.30;2.40;;;;;;;;;;5011522;28;20442;-52
2023/03/09 07:37:46;;;;;;;3.80;1.50;;;;;;;;;;5041774;28;20431;-52
2023/03/09 07:40:12;;;;;;;6.07;2.53;;;;;;;;;;5010674;28;20439;-51
2023/03/09 07:42:38;;;;;;;7.33;3.00;;;;;;;;;;5041242;28;20445;-52
2023/03/09 07:45:05;;;;;;;5.53;1.23;;;;;;;;;;5011484;28;20438;-51
2023/03/09 07:47:31;;;;;;;4.60;2.53;;;;;;;;;;5033367;28;20493;-53
2023/03/09 07:49:59;;;;;;;5.60;1.83;;;;;;;;;;5006711;28;20449;-50
2023/03/09 07:52:30;;;;;;;7.83;1.73;;;;;;;;;;5034622;28;20435;-52
2023/03/09 07:54:56;;;;;;;3.83;1.50;;;;;;;;;;5032210;28;20462;-52
2023/03/09 07:57:23;;;;;;;4.50;1.67;;;;;;;;;;5042404;28;20434;-50
2023/03/09 07:59:53;;;;;;;4.30;1.17;;;;;;;;;;5010248;28;20788;-52
2023/03/09 08:02:19;;;;;;;6.40;1.43;;;;;;;;;;5038402;28;21311;-50
2023/03/09 08:04:45;;;;;;;3.83;1.40;;;;;;;;;;5023206;28;20468;-53
2023/03/09 08:07:11;;;;;;;6.53;1.33;;;;;;;;;;5017188;28;20964;-53
2023/03/09 08:09:37;;;;;;;3.70;1.63;;;;;;;;;;5034728;28;23468;-52
2023/03/09 08:12:03;;;;;;;2.57;1.40;;;;;;;;;;5031225;28;20431;-51
2023/03/09 08:14:29;;;;;;;5.40;1.70;;;;;;;;;;5023961;28;20811;-53
2023/03/09 08:16:56;;;;;;;2.97;1.20;;;;;;;;;;5011491;28;20515;-53
2023/03/09 08:19:22;;;;;;;2.63;1.33;;;;;;;;;;5036933;28;20456;-52
2023/03/09 08:21:48;;;;;;;2.23;1.20;;;;;;;;;;4992518;28;20477;-50
2023/03/09 08:24:14;;;;;;;5.20;1.50;;;;;;;;;;5037592;28;20544;-53
2023/03/09 08:26:40;;;;;;;2.50;1.40;;;;;;;;;;5004490;28;20465;-52
2023/03/09 08:29:06;;;;;;;2.07;1.00;;;;;;;;;;5034031;28;20836;-52
2023/03/09 08:31:33;;;;;;;1.77;1.27;;;;;;;;;;4976675;28;20438;-53
2023/03/09 08:33:59;;;;;;;3.90;1.83;;;;;;;;;;5034719;28;20982;-53
2023/03/09 08:36:25;;;;;;;6.97;1.50;;;;;;;;;;5007731;28;21091;-52
2023/03/09 08:38:51;;;;;;;3.97;1.50;;;;;;;;;;5035831;28;20511;-53
2023/03/09 08:41:17;;;;;;;4.73;0.90;;;;;;;;;;5033975;28;20431;-53
2023/03/09 08:43:43;;;;;;;4.07;1.00;;;;;;;;;;5037646;28;20480;-53
2023/03/09 08:46:09;;;;;;;3.93;1.10;;;;;;;;;;5013408;28;20899;-51
2023/03/09 08:48:35;;;;;;;1.40;0.80;;;;;;;;;;5041707;28;21053;-52
2023/03/09 08:51:05;;;;;;;1.50;1.03;;;;;;;;;;5018317;28;21648;-52
2023/03/09 08:53:32;;;;;;;4.10;1.33;;;;;;;;;;5036058;28;20925;-51
2023/03/09 08:55:58;;;;;;;2.67;0.93;;;;;;;;;;5015991;28;20418;-51
2023/03/09 08:58:25;;;;;;;3.20;1.37;;;;;;;;;;5035361;28;20520;-53
2023/03/09 09:01:12;;;;;;;2.43;1.07;;;;;;;;;;5045738;28;20431;-53
2023/03/09 09:03:39;;;;;;;2.77;1.13;;;;;;;;;;5005439;28;21077;-54
2023/03/09 09:06:06;;;;;;;4.47;1.00;;;;;;;;;;5040201;28;20445;-53
2023/03/09 09:08:32;;;;;;;6.30;1.00;;;;;;;;;;5007824;28;20481;-52
2023/03/09 09:10:58;;;;;;;1.90;1.00;;;;;;;;;;5044787;28;20439;-53
2023/03/09 09:13:24;;;;;;;2.30;1.00;;;;;;;;;;5011963;28;20438;-51
2023/03/09 09:15:54;;;;;;;6.93;1.70;;;;;;;;;;5041732;28;20495;-52
2023/03/09 09:18:20;;;;;;;6.20;1.20;;;;;;;;;;5013400;28;21217;-53
2023/03/09 09:20:47;;;;;;;7.57;1.37;;;;;;;;;;5039984;28;20445;-54
2023/03/09 09:23:13;;;;;;;4.43;0.80;;;;;;;;;;5001991;28;20734;-52
2023/03/09 09:25:39;;;;;;;2.97;1.07;;;;;;;;;;5036435;28;20442;-52
2023/03/09 09:28:05;;;;;;;3.70;1.27;;;;;;;;;;4985223;28;20542;-52
2023/03/09 09:30:32;;;;;;;2.23;0.90;;;;;;;;;;5049921;28;20437;-51
2023/03/09 09:33:00;;;;;;;3.90;0.90;;;;;;;;;;5013520;28;21005;-52
2023/03/09 09:35:26;;;;;;;3.47;1.40;;;;;;;;;;5029654;28;20437;-54
2023/03/09 09:37:54;;;;;;;2.07;0.80;;;;;;;;;;5030832;28;20855;-53
2023/03/09 09:40:20;;;;;;;2.17;0.90;;;;;;;;;;5009716;28;20584;-52
2023/03/09 09:42:46;;;;;;;2.10;1.37;;;;;;;;;;5035309;28;20446;-52
2023/03/09 09:45:29;;;;;;;2.30;0.83;;;;;;;;;;5047190;28;20431;-52
2023/03/09 09:47:55;;;;;;;2.00;1.00;;;;;;;;;;5037350;28;20481;-53
2023/03/09 09:50:22;;;;;;;2.97;0.70;;;;;;;;;;5033598;28;21201;-53
2023/03/09 09:52:51;;;;;;;4.67;1.03;;;;;;;;;;5044298;28;20491;-54
2023/03/09 09:55:22;;;;;;;1.90;1.00;;;;;;;;;;5016397;28;20438;-52
2023/03/09 09:57:51;;;;;;;2.20;1.00;;;;;;;;;;5035009;28;20538;-52
2023/03/09 10:00:21;;;;;;;3.63;0.97;;;;;;;;;;5029269;28;20422;-51
2023/03/09 10:02:54;;;;;;;1.73;0.90;;;;;;;;;;5038871;28;21156;-53
2023/03/09 10:05:50;;;;;;;2.70;1.17;;;;;;;;;;5027921;28;20859;-54
2023/03/09 10:08:23;;;;;;;2.53;1.20;;;;;;;;;;5024524;28;20520;-52
2023/03/09 10:10:49;;;;;;;1.63;1.00;;;;;;;;;;5004161;28;20454;-52
2023/03/09 10:13:16;;;;;;;3.13;0.90;;;;;;;;;;5039928;28;20791;-51
2023/03/09 10:15:42;;;;;;;2.37;0.90;;;;;;;;;;5035694;28;20450;-52
2023/03/09 10:18:13;;;;;;;1.87;1.10;;;;;;;;;;5037711;28;20430;-54
2023/03/09 10:20:40;;;;;;;2.13;1.00;;;;;;;;;;5032450;28;20529;-52
2023/03/09 10:23:25;;;;;;;1.83;0.90;;;;;;;;;;5035344;28;20941;-50
2023/03/09 10:25:51;;;;;;;4.30;1.20;;;;;;;;;;5001533;28;20806;-51
2023/03/09 10:28:18;;;;;;;3.40;1.20;;;;;;;;;;5053467;28;20561;-52
2023/03/09 10:30:56;;;;;;;2.10;1.13;;;;;;;;;;5006531;28;20515;-53
2023/03/09 10:33:36;;;;;;;1.93;1.00;;;;;;;;;;5026558;28;21171;-52
2023/03/09 10:36:21;;;;;;;2.07;0.80;;;;;;;;;;5042991;28;20440;-52
2023/03/09 10:38:47;;;;;;;2.73;1.27;;;;;;;;;;5038154;28;20592;-52
2023/03/09 10:41:17;;;;;;;2.60;0.80;;;;;;;;;;4970330;28;20607;-52
2023/03/09 10:43:43;;;;;;;4.07;1.07;;;;;;;;;;5030217;28;20952;-51
2023/03/09 10:46:16;;;;;;;2.10;1.20;;;;;;;;;;5007952;28;20440;-54
2023/03/09 10:48:42;;;;;;;1.47;0.90;;;;;;;;;;5036857;28;20999;-52
2023/03/09 10:51:21;;;;;;;3.37;1.67;;;;;;;;;;5033150;28;20700;-53
2023/03/09 10:53:48;;;;;;;1.93;0.87;;;;;;;;;;5041217;28;20442;-53
2023/03/09 10:56:20;;;;;;;3.20;1.10;;;;;;;;;;5006423;28;21269;-52
2023/03/09 10:58:46;;;;;;;2.37;1.00;;;;;;;;;;5037441;28;20441;-54
2023/03/09 11:01:12;;;;;;;2.30;1.07;;;;;;;;;;5016823;28;21982;-53
2023/03/09 11:03:39;;;;;;;4.83;1.00;;;;;;;;;;5035539;28;20435;-52
2023/03/09 11:06:24;;;;;;;4.30;1.13;;;;;;;;;;5003760;28;20545;-53
2023/03/09 11:09:13;;;;;;;3.07;1.00;;;;;;;;;;5038435;28;20485;-53
2023/03/09 11:11:39;;;;;;;4.50;1.20;;;;;;;;;;4962377;28;20511;-52
2023/03/09 11:14:16;;;;;;;3.17;1.40;;;;;;;;;;5021190;28;20496;-53
2023/03/09 11:16:46;;;;;;;3.13;1.33;;;;;;;;;;5012664;28;20438;-52
2023/03/09 11:19:13;;;;;;;3.40;1.23;;;;;;;;;;5050579;28;20486;-53
2023/03/09 11:21:40;;;;;;;2.00;1.07;;;;;;;;;;4997723;28;20465;-53
2023/03/09 11:24:07;;;;;;;4.60;1.10;;;;;;;;;;5026564;28;20440;-53
2023/03/09 11:26:40;;;;;;;7.23;1.60;;;;;;;;;;5009268;28;20447;-51
2023/03/09 11:29:36;;;;;;;3.53;1.00;;;;;;;;;;5038142;28;20928;-54
2023/03/09 11:32:02;;;;;;;2.13;0.93;;;;;;;;;;5009848;28;20442;-53
2023/03/09 11:34:31;;;;;;;2.37;1.17;;;;;;;;;;5024062;28;20435;-51
2023/03/09 11:37:15;;;;;;;3.27;1.20;;;;;;;;;;5008095;28;20459;-55
2023/03/09 11:40:00;;;;;;;3.73;1.27;;;;;;;;;;5040500;28;20431;-52
2023/03/09 11:42:29;;;;;;;2.40;0.80;;;;;;;;;;5017742;28;20683;-51
2023/03/09 11:45:05;;;;;;;2.63;0.90;;;;;;;;;;5031881;28;22152;-52
2023/03/09 11:47:35;;;;;;;3.33;1.00;;;;;;;;;;4995144;28;20994;-52
2023/03/09 11:50:03;;;;;;;3.10;1.10;;;;;;;;;;5038807;28;20488;-53
2023/03/09 11:52:31;;;;;;;1.50;0.80;;;;;;;;;;5053496;28;20506;-50
2023/03/09 11:54:57;;;;;;;1.60;0.80;;;;;;;;;;5055885;28;20496;-52
2023/03/09 11:57:23;;;;;;;2.80;1.10;;;;;;;;;;5008045;28;20438;-52
2023/03/09 11:59:52;;;;;;;5.63;1.00;;;;;;;;;;5036737;28;20454;-51
2023/03/09 12:02:19;;;;;;;3.10;1.03;;;;;;;;;;5003313;28;20470;-50
2023/03/09 12:04:48;;;;;;;2.43;0.83;;;;;;;;;;5034393;28;20450;-51
2023/03/09 12:07:26;;;;;;;2.47;0.93;;;;;;;;;;5005545;28;20446;-51
2023/03/09 12:09:55;;;;;;;10.13;1.33;;;;;;;;;;5032247;28;20468;-53
2023/03/09 12:12:40;;;;;;;2.13;1.00;;;;;;;;;;5026925;28;20434;-52
2023/03/09 12:15:55;;;;;;;1.67;0.90;;;;;;;;;;5030445;28;20932;-52
2023/03/09 12:18:24;;;;;;;1.60;0.80;;;;;;;;;;4963067;28;20432;-51
2023/03/09 12:20:54;;;;;;;5.67;0.93;;;;;;;;;;5039187;28;20870;-51
2023/03/09 12:23:35;;;;;;;2.93;1.10;;;;;;;;;;5025976;28;20462;-51
2023/03/09 12:26:02;;;;;;;4.63;1.30;;;;;;;;;;5040109;28;20422;-52
2023/03/09 12:28:27;;;;;;;3.20;1.00;;;;;;;;;;5032684;28;20529;-51
2023/03/09 12:30:54;;;;;;;1.80;0.90;;;;;;;;;;5041570;28;20813;-52
2023/03/09 12:33:39;;;;;;;3.47;1.00;;;;;;;;;;5034177;28;20457;-52
2023/03/09 12:36:12;;;;;;;5.50;1.70;;;;;;;;;;5039893;28;20444;-53
2023/03/09 12:38:38;;;;;;;3.53;1.37;;;;;;;;;;5032087;28;20433;-51
2023/03/09 12:41:04;;;;;;;4.63;1.43;;;;;;;;;;5031964;28;20449;-51
2023/03/09 12:43:32;;;;;;;2.13;1.00;;;;;;;;;;5020408;28;20457;-52
2023/03/09 12:45:59;;;;;;;2.63;1.33;;;;;;;;;;5039708;28;20430;-51
2023/03/09 12:48:29;;;;;;;2.40;1.13;;;;;;;;;;4989540;28;20535;-52
2023/03/09 12:50:59;;;;;;;2.03;0.90;;;;;;;;;;5053523;28;20816;-50
2023/03/09 12:53:32;;;;;;;1.77;1.03;;;;;;;;;;5034032;28;20414;-49
2023/03/09 12:55:59;;;;;;;1.90;1.00;;;;;;;;;;5039539;28;20431;-51
2023/03/09 12:58:25;;;;;;;4.40;1.50;;;;;;;;;;5016922;28;20450;-56
2023/03/09 13:00:56;;;;;;;2.03;1.47;;;;;;;;;;5038485;28;20432;-51
2023/03/09 13:03:23;;;;;;;3.93;1.27;;;;;;;;;;5014010;28;20445;-51
2023/03/09 13:05:49;;;;;;;2.43;1.27;;;;;;;;;;5039841;28;20525;-52
2023/03/09 13:08:34;;;;;;;5.87;1.40;;;;;;;;;;5006564;28;21009;-51
2023/03/09 13:11:19;;;;;;;6.17;1.77;;;;;;;;;;5042412;28;20584;-53
2023/03/09 13:13:45;;;;;;;2.27;1.37;;;;;;;;;;5039349;28;20488;-52
2023/03/09 13:16:30;;;;;;;2.33;0.90;;;;;;;;;;5041232;28;20507;-52
2023/03/09 13:19:15;;;;;;;2.80;1.00;;;;;;;;;;5000211;28;20521;-50
2023/03/09 13:21:41;;;;;;;1.60;0.90;;;;;;;;;;5011148;28;20442;-52
2023/03/09 13:24:26;;;;;;;3.23;1.10;;;;;;;;;;5039367;28;20492;-53
2023/03/09 13:26:54;;;;;;;3.20;1.27;;;;;;;;;;5036513;28;20962;-54
2023/03/09 13:29:23;;;;;;;1.80;1.07;;;;;;;;;;5037842;28;20479;-53
2023/03/09 13:31:49;;;;;;;3.00;1.30;;;;;;;;;;5010905;28;20443;-53
2023/03/09 13:34:19;;;;;;;4.43;1.43;;;;;;;;;;5036671;28;20833;-53
2023/03/09 13:36:45;;;;;;;5.47;0.90;;;;;;;;;;5011953;28;20447;-52
2023/03/09 13:39:16;;;;;;;12.13;1.63;;;;;;;;;;5022370;28;20706;-57
2023/03/09 13:41:42;;;;;;;4.73;1.70;;;;;;;;;;5013777;28;20474;-51
2023/03/09 13:44:15;;;;;;;2.73;1.30;;;;;;;;;;5040139;28;20874;-53
2023/03/09 13:46:42;;;;;;;5.20;1.40;;;;;;;;;;5038003;28;20456;-52
2023/03/09 13:49:13;;;;;;;4.53;1.50;;;;;;;;;;5046743;28;20504;-53
2023/03/09 13:51:41;;;;;;;2.83;1.40;;;;;;;;;;5017155;28;20555;-49
2023/03/09 13:54:18;;;;;;;5.07;1.10;;;;;;;;;;5029912;28;20461;-53
2023/03/09 13:56:44;;;;;;;5.20;1.00;;;;;;;;;;5025612;28;20430;-54
2023/03/09 13:59:14;;;;;;;7.70;1.83;;;;;;;;;;5032264;28;20437;-54
2023/03/09 14:01:41;;;;;;;1.93;1.13;;;;;;;;;;5019156;28;20437;-52
2023/03/09 14:04:14;;;;;;;4.40;2.00;;;;;;;;;;5029628;28;20449;-51
2023/03/09 14:06:40;;;;;;;2.97;1.53;;;;;;;;;;5021782;28;23636;-54
2023/03/09 14:09:20;;;;;;;5.17;1.77;;;;;;;;;;5025217;28;21185;-51
2023/03/09 14:11:46;;;;;;;7.70;2.00;;;;;;;;;;5016903;28;20757;-51
2023/03/09 14:14:13;;;;;;;4.80;1.67;;;;;;;;;;5030910;28;20484;-51
2023/03/09 14:16:39;;;;;;;3.50;1.63;;;;;;;;;;5031866;28;20511;-51
2023/03/09 14:19:05;;;;;;;5.87;2.73;;;;;;;;;;5035969;28;20939;-52
2023/03/09 14:22:09;;;;;;;3.43;1.67;;;;;;;;;;5057533;28;20441;-56
2023/03/09 14:24:37;;;;;;;3.97;1.50;;;;;;;;;;5029139;28;21032;-51
2023/03/09 14:27:22;;;;;;;1.83;1.03;;;;;;;;;;5032360;28;20439;-52
2023/03/09 14:29:48;;;;;;;8.67;2.17;;;;;;;;;;5035670;28;20446;-52
2023/03/09 14:32:24;;;;;;;2.00;0.97;;;;;;;;;;5025030;28;20449;-54
2023/03/09 14:34:53;;;;;;;2.20;1.00;;;;;;;;;;5038287;28;20904;-51
2023/03/09 14:37:21;;;;;;;3.97;1.23;;;;;;;;;;5022016;28;20446;-50
2023/03/09 14:39:47;;;;;;;2.40;1.00;;;;;;;;;;5035530;28;20966;-51
2023/03/09 14:42:19;;;;;;;4.70;1.27;;;;;;;;;;5008192;28;20443;-51
2023/03/09 14:45:08;;;;;;;1.60;0.80;;;;;;;;;;5033871;28;20431;-54
2023/03/09 14:47:35;;;;;;;2.90;1.40;;;;;;;;;;5009550;28;20568;-52
2023/03/09 14:50:01;;;;;;;6.40;1.80;;;;;;;;;;5037103;28;20955;-51